sensor_id;sensor_type;location;lat;lon;timestamp;pressure;altitude;pressure_sealevel;temperature;humidity
12759;BME280;20944;47.048;15.390;2023-03-22T00:02:22;97486.75;;;9.36;73.14
12759;BME280;20944;47.048;15.390;2023-03-22T00:04:52;97475.56;;;9.31;73.57
12759;BME280;20944;47.048;15.390;2023-03-22T00:07:20;97421.81;;;8.85;74.12
12759;BME280;20944;47.048;15.390;2023-03-22T00:09:48;97476.84;;;9.15;74.07
12759;BME280;20944;47.048;15.390;2023-03-22T00:12:17;97459.66;;;9.05;74.16
12759;BME280;20944;47.048;15.390;2023-03-22T00:14:45;97476.94;;;9.10;74.46
12759;BME280;20944;47.048;15.390;2023-03-22T00:17:14;97470.84;;;9.11;74.10
12759;BME280;20944;47.048;15.390;2023-03-22T00:19:44;97455.34;;;9.04;74.29
12759;BME280;20944;47.048;15.390;2023-03-22T00:22:13;97469.94;;;9.12;74.22
12759;BME280;20944;47.048;15.390;2023-03-22T00:24:42;97475.28;;;9.08;74.17
12759;BME280;20944;47.048;15.390;2023-03-22T00:27:10;97478.69;;;9.10;74.56
12759;BME280;20944;47.048;15.390;2023-03-22T00:29:38;97473.53;;;9.08;74.79
12759;BME280;20944;47.048;15.390;2023-03-22T00:32:06;97467.72;;;8.96;75.30
12759;BME280;20944;47.048;15.390;2023-03-22T00:34:34;97464.44;;;8.87;75.77
12759;BME280;20944;47.048;15.390;2023-03-22T00:37:04;97465.97;;;8.96;75.05
12759;BME280;20944;47.048;15.390;2023-03-22T00:39:33;97465.16;;;8.94;74.70
12759;BME280;20944;47.048;15.390;2023-03-22T00:42:02;97398.53;;;8.39;75.66
12759;BME280;20944;47.048;15.390;2023-03-22T00:44:31;97455.38;;;8.65;76.26
12759;BME280;20944;47.048;15.390;2023-03-22T00:46:59;97450.97;;;8.69;76.09
12759;BME280;20944;47.048;15.390;2023-03-22T00:49:28;97046.09;;;6.25;76.19
12759;BME280;20944;47.048;15.390;2023-03-22T00:51:56;97447.38;;;8.73;76.21
12759;BME280;20944;47.048;15.390;2023-03-22T00:54:26;97437.19;;;8.60;75.95
12759;BME280;20944;47.048;15.390;2023-03-22T00:56:54;97443.19;;;8.65;76.69
12759;BME280;20944;47.048;15.390;2023-03-22T00:59:25;97350.78;;;7.95;77.10
12759;BME280;20944;47.048;15.390;2023-03-22T01:02:32;97317.84;;;7.90;77.13
12759;BME280;20944;47.048;15.390;2023-03-22T01:05:00;97443.00;;;8.75;76.39
12759;BME280;20944;47.048;15.390;2023-03-22T01:07:28;97449.03;;;8.77;76.47
12759;BME280;20944;47.048;15.390;2023-03-22T01:09:58;97423.91;;;8.71;76.33
12759;BME280;20944;47.048;15.390;2023-03-22T01:12:26;97423.91;;;8.71;76.24
12759;BME280;20944;47.048;15.390;2023-03-22T01:14:54;97393.09;;;8.48;76.71
12759;BME280;20944;47.048;15.390;2023-03-22T01:17:23;97441.94;;;8.82;76.58
12759;BME280;20944;47.048;15.390;2023-03-22T01:19:51;97430.69;;;8.78;76.56
12759;BME280;20944;47.048;15.390;2023-03-22T01:22:19;97413.50;;;8.70;76.45
12759;BME280;20944;47.048;15.390;2023-03-22T01:24:47;97430.53;;;8.84;75.96
12759;BME280;20944;47.048;15.390;2023-03-22T01:27:17;97436.78;;;8.79;75.74
12759;BME280;20944;47.048;15.390;2023-03-22T01:29:45;97272.03;;;7.78;76.22
12759;BME280;20944;47.048;15.390;2023-03-22T01:32:14;97424.75;;;8.72;76.78
12759;BME280;20944;47.048;15.390;2023-03-22T01:34:42;97399.22;;;8.47;77.18
12759;BME280;20944;47.048;15.390;2023-03-22T01:37:10;97423.47;;;8.52;77.73
12759;BME280;20944;47.048;15.390;2023-03-22T01:39:38;97404.44;;;8.47;77.90
12759;BME280;20944;47.048;15.390;2023-03-22T01:42:10;97414.44;;;8.65;77.66
12759;BME280;20944;47.048;15.390;2023-03-22T01:44:41;97415.31;;;8.66;77.70
12759;BME280;20944;47.048;15.390;2023-03-22T01:47:12;97419.81;;;8.59;78.02
12759;BME280;20944;47.048;15.390;2023-03-22T01:49:41;97418.25;;;8.52;78.16
12759;BME280;20944;47.048;15.390;2023-03-22T01:52:11;97415.69;;;8.51;78.26
12759;BME280;20944;47.048;15.390;2023-03-22T01:54:44;97285.22;;;7.72;78.85
12759;BME280;20944;47.048;15.390;2023-03-22T01:57:14;97410.34;;;8.55;78.55
12759;BME280;20944;47.048;15.390;2023-03-22T01:59:46;97274.00;;;7.68;78.35
12759;BME280;20944;47.048;15.390;2023-03-22T02:02:16;97381.38;;;8.27;78.70
12759;BME280;20944;47.048;15.390;2023-03-22T02:04:46;97409.91;;;8.35;78.94
12759;BME280;20944;47.048;15.390;2023-03-22T02:07:16;97407.19;;;8.43;79.15
12759;BME280;20944;47.048;15.390;2023-03-22T02:09:53;97409.75;;;8.44;78.99
12759;BME280;20944;47.048;15.390;2023-03-22T02:12:27;97397.13;;;8.23;79.48
12759;BME280;20944;47.048;15.390;2023-03-22T02:15:07;97409.75;;;8.44;78.74
12759;BME280;20944;47.048;15.390;2023-03-22T02:17:45;97404.94;;;8.23;78.95
12759;BME280;20944;47.048;15.390;2023-03-22T02:26:56;97425.78;;;8.26;79.57
12759;BME280;20944;47.048;15.390;2023-03-22T02:29:35;97417.13;;;8.24;79.66
12759;BME280;20944;47.048;15.390;2023-03-22T02:32:43;97395.81;;;8.03;79.71
12759;BME280;20944;47.048;15.390;2023-03-22T02:35:45;97416.59;;;8.08;80.29
12759;BME280;20944;47.048;15.390;2023-03-22T02:38:59;97415.66;;;8.12;79.74
12759;BME280;20944;47.048;15.390;2023-03-22T02:41:38;97363.53;;;7.69;80.77
12759;BME280;20944;47.048;15.390;2023-03-22T02:44:15;97429.97;;;7.93;81.03
12759;BME280;20944;47.048;15.390;2023-03-22T02:46:55;97405.97;;;8.16;80.33
12759;BME280;20944;47.048;15.390;2023-03-22T02:49:32;97391.69;;;7.93;80.90
12759;BME280;20944;47.048;15.390;2023-03-22T02:52:09;97414.75;;;8.13;80.82
12759;BME280;20944;47.048;15.390;2023-03-22T02:54:49;97412.88;;;8.20;80.36
12759;BME280;20944;47.048;15.390;2023-03-22T02:57:25;97424.47;;;8.06;81.16
12759;BME280;20944;47.048;15.390;2023-03-22T02:59:57;97409.69;;;8.05;81.40
12759;BME280;20944;47.048;15.390;2023-03-22T03:02:27;97414.78;;;8.11;81.05
12759;BME280;20944;47.048;15.390;2023-03-22T03:04:58;97417.28;;;8.18;80.81
12759;BME280;20944;47.048;15.390;2023-03-22T03:07:27;97398.38;;;8.06;81.08
12759;BME280;20944;47.048;15.390;2023-03-22T03:09:58;97479.41;;;7.97;80.34
12759;BME280;20944;47.048;15.390;2023-03-22T03:12:27;97424.28;;;8.14;80.79
12759;BME280;20944;47.048;15.390;2023-03-22T03:14:56;97429.59;;;8.09;81.12
12759;BME280;20944;47.048;15.390;2023-03-22T03:17:35;97418.34;;;8.07;81.03
12759;BME280;20944;47.048;15.390;2023-03-22T03:20:19;97415.25;;;7.89;81.77
12759;BME280;20944;47.048;15.390;2023-03-22T03:23:00;97422.75;;;8.05;81.64
12759;BME280;20944;47.048;15.390;2023-03-22T03:25:37;97422.72;;;8.07;81.49
12759;BME280;20944;47.048;15.390;2023-03-22T03:28:15;97431.53;;;8.01;81.49
12759;BME280;20944;47.048;15.390;2023-03-22T03:30:54;97410.81;;;7.94;81.36
12759;BME280;20944;47.048;15.390;2023-03-22T03:33:26;97406.84;;;7.76;82.23
12759;BME280;20944;47.048;15.390;2023-03-22T03:35:59;97426.50;;;7.92;81.86
12759;BME280;20944;47.048;15.390;2023-03-22T03:38:30;97430.09;;;7.85;82.10
12759;BME280;20944;47.048;15.390;2023-03-22T03:41:05;97426.63;;;7.86;82.04
12759;BME280;20944;47.048;15.390;2023-03-22T03:43:34;97411.34;;;7.68;83.38
12759;BME280;20944;47.048;15.390;2023-03-22T03:46:03;97420.59;;;7.82;83.18
12759;BME280;20944;47.048;15.390;2023-03-22T03:48:34;97435.78;;;8.05;82.04
12759;BME280;20944;47.048;15.390;2023-03-22T03:51:03;97428.84;;;8.04;82.17
12759;BME280;20944;47.048;15.390;2023-03-22T03:53:31;97427.97;;;8.05;82.19
12759;BME280;20944;47.048;15.390;2023-03-22T03:56:01;97424.63;;;7.97;82.43
12759;BME280;20944;47.048;15.390;2023-03-22T03:58:29;97422.03;;;7.99;82.36
12759;BME280;20944;47.048;15.390;2023-03-22T04:00:57;97349.91;;;7.53;82.27
12759;BME280;20944;47.048;15.390;2023-03-22T04:03:25;97428.22;;;7.93;82.61
12759;BME280;20944;47.048;15.390;2023-03-22T04:05:53;97417.88;;;7.89;82.43
12759;BME280;20944;47.048;15.390;2023-03-22T04:08:22;97402.63;;;7.69;82.63
12759;BME280;20944;47.048;15.390;2023-03-22T04:10:51;97430.19;;;7.82;83.31
12759;BME280;20944;47.048;15.390;2023-03-22T04:13:20;97433.59;;;7.84;83.46
12759;BME280;20944;47.048;15.390;2023-03-22T04:15:53;97427.19;;;8.00;82.94
12759;BME280;20944;47.048;15.390;2023-03-22T04:18:23;97431.53;;;8.01;82.40
12759;BME280;20944;47.048;15.390;2023-03-22T04:20:53;97434.22;;;7.98;82.81
12759;BME280;20944;47.048;15.390;2023-03-22T04:23:22;97444.66;;;7.98;82.34
12759;BME280;20944;47.048;15.390;2023-03-22T04:25:51;97440.53;;;7.85;83.33
12759;BME280;20944;47.048;15.390;2023-03-22T04:28:21;97437.06;;;7.86;83.53
12759;BME280;20944;47.048;15.390;2023-03-22T04:30:51;97451.81;;;7.87;83.58
12759;BME280;20944;47.048;15.390;2023-03-22T04:33:20;97444.81;;;7.89;84.07
12759;BME280;20944;47.048;15.390;2023-03-22T04:35:48;97443.97;;;7.89;83.71
12759;BME280;20944;47.048;15.390;2023-03-22T04:38:23;97443.91;;;7.90;83.84
12759;BME280;20944;47.048;15.390;2023-03-22T04:40:51;97424.16;;;7.78;84.17
12759;BME280;20944;47.048;15.390;2023-03-22T04:43:22;97440.44;;;7.90;84.16
12759;BME280;20944;47.048;15.390;2023-03-22T04:45:50;97437.63;;;8.00;83.93
12759;BME280;20944;47.048;15.390;2023-03-22T04:48:20;97442.78;;;8.05;83.82
12759;BME280;20944;47.048;15.390;2023-03-22T04:50:53;97441.03;;;8.04;83.66
12759;BME280;20944;47.048;15.390;2023-03-22T04:53:21;97432.38;;;8.02;84.16
12759;BME280;20944;47.048;15.390;2023-03-22T04:55:53;97435.97;;;7.96;84.17
12759;BME280;20944;47.048;15.390;2023-03-22T04:58:24;97424.88;;;7.85;84.66
12759;BME280;20944;47.048;15.390;2023-03-22T05:00:53;97438.63;;;7.95;84.73
12759;BME280;20944;47.048;15.390;2023-03-22T05:03:21;97429.75;;;8.02;84.32
12759;BME280;20944;47.048;15.390;2023-03-22T05:05:50;97433.22;;;8.02;84.42
12759;BME280;20944;47.048;15.390;2023-03-22T05:08:19;97419.53;;;7.93;84.56
12759;BME280;20944;47.048;15.390;2023-03-22T05:10:48;97434.00;;;8.07;84.47
12759;BME280;20944;47.048;15.390;2023-03-22T05:13:16;97435.59;;;8.15;84.33
12759;BME280;20944;47.048;15.390;2023-03-22T05:15:47;97437.97;;;8.25;83.70
12759;BME280;20944;47.048;15.390;2023-03-22T05:18:16;97348.78;;;7.66;83.57
12759;BME280;20944;47.048;15.390;2023-03-22T05:20:47;97448.34;;;8.28;83.91
12759;BME280;20944;47.048;15.390;2023-03-22T05:23:15;97448.22;;;8.36;83.46
12759;BME280;20944;47.048;15.390;2023-03-22T05:25:45;97445.34;;;8.47;83.44
12759;BME280;20944;47.048;15.390;2023-03-22T05:28:13;97449.63;;;8.51;83.42
12759;BME280;20944;47.048;15.390;2023-03-22T05:30:42;97451.38;;;8.50;83.94
12759;BME280;20944;47.048;15.390;2023-03-22T05:33:12;97393.66;;;8.24;81.93
12759;BME280;20944;47.048;15.390;2023-03-22T05:35:42;97446.88;;;8.57;82.06
12759;BME280;20944;47.048;15.390;2023-03-22T05:38:10;97446.34;;;8.43;83.03
12759;BME280;20944;47.048;15.390;2023-03-22T05:40:38;97445.44;;;8.42;83.55
12759;BME280;20944;47.048;15.390;2023-03-22T05:43:07;97447.81;;;8.53;82.64
12759;BME280;20944;47.048;15.390;2023-03-22T05:45:35;97428.22;;;8.33;83.14
12759;BME280;20944;47.048;15.390;2023-03-22T05:48:04;97428.19;;;8.36;83.03
12759;BME280;20944;47.048;15.390;2023-03-22T05:50:34;97453.09;;;8.51;83.20
12759;BME280;20944;47.048;15.390;2023-03-22T05:53:02;97448.50;;;8.61;83.57
12759;BME280;20944;47.048;15.390;2023-03-22T05:55:30;97428.50;;;8.60;83.67
12759;BME280;20944;47.048;15.390;2023-03-22T05:57:59;97453.91;;;8.90;81.61
12759;BME280;20944;47.048;15.390;2023-03-22T06:00:28;97451.34;;;8.89;80.92
12759;BME280;20944;47.048;15.390;2023-03-22T06:02:58;97452.16;;;8.91;82.33
12759;BME280;20944;47.048;15.390;2023-03-22T06:05:30;97445.41;;;8.82;82.18
12759;BME280;20944;47.048;15.390;2023-03-22T06:08:00;97461.75;;;8.90;82.02
12759;BME280;20944;47.048;15.390;2023-03-22T06:10:28;97447.03;;;8.88;81.91
12759;BME280;20944;47.048;15.390;2023-03-22T06:12:56;97443.16;;;9.03;81.67
12759;BME280;20944;47.048;15.390;2023-03-22T06:15:25;97460.31;;;9.14;80.29
12759;BME280;20944;47.048;15.390;2023-03-22T06:17:53;97456.78;;;9.15;80.04
12759;BME280;20944;47.048;15.390;2023-03-22T06:20:21;97454.81;;;9.24;80.11
12759;BME280;20944;47.048;15.390;2023-03-22T06:22:51;97466.72;;;9.37;80.46
12759;BME280;20944;47.048;15.390;2023-03-22T06:25:20;97463.03;;;9.44;80.41
12759;BME280;20944;47.048;15.390;2023-03-22T06:27:49;97448.69;;;9.26;80.88
12759;BME280;20944;47.048;15.390;2023-03-22T06:30:17;97468.59;;;9.32;81.18
12759;BME280;20944;47.048;15.390;2023-03-22T06:32:45;97472.88;;;9.34;80.77
12759;BME280;20944;47.048;15.390;2023-03-22T06:35:13;97478.88;;;9.38;80.16
12759;BME280;20944;47.048;15.390;2023-03-22T06:37:42;97475.91;;;9.52;80.09
12759;BME280;20944;47.048;15.390;2023-03-22T06:40:11;97401.66;;;9.25;79.41
12759;BME280;20944;47.048;15.390;2023-03-22T06:42:40;97474.25;;;9.80;78.65
12759;BME280;20944;47.048;15.390;2023-03-22T06:45:09;97450.97;;;9.71;77.79
12759;BME280;20944;47.048;15.390;2023-03-22T06:47:40;97470.69;;;10.15;76.68
12759;BME280;20944;47.048;15.390;2023-03-22T06:50:09;97475.72;;;10.21;77.49
12759;BME280;20944;47.048;15.390;2023-03-22T06:52:37;97479.19;;;10.23;77.54
12759;BME280;20944;47.048;15.390;2023-03-22T06:55:06;97480.03;;;10.25;77.54
12759;BME280;20944;47.048;15.390;2023-03-22T06:57:34;97425.78;;;9.99;76.21
12759;BME280;20944;47.048;15.390;2023-03-22T07:00:06;97480.25;;;10.16;76.07
12759;BME280;20944;47.048;15.390;2023-03-22T07:02:34;97336.00;;;9.35;76.39
12759;BME280;20944;47.048;15.390;2023-03-22T07:05:03;97479.31;;;10.19;77.45
12759;BME280;20944;47.048;15.390;2023-03-22T07:07:32;97481.63;;;10.31;76.66
12759;BME280;20944;47.048;15.390;2023-03-22T07:10:00;97299.72;;;9.25;76.20
12759;BME280;20944;47.048;15.390;2023-03-22T07:12:28;97480.03;;;10.25;76.65
12759;BME280;20944;47.048;15.390;2023-03-22T07:14:56;97487.47;;;10.39;76.55
12759;BME280;20944;47.048;15.390;2023-03-22T07:17:26;97469.94;;;10.41;76.22
12759;BME280;20944;47.048;15.390;2023-03-22T07:19:54;97416.59;;;10.14;76.91
12759;BME280;20944;47.048;15.390;2023-03-22T07:22:22;97489.94;;;10.73;75.38
12759;BME280;20944;47.048;15.390;2023-03-22T07:24:51;97448.53;;;10.57;74.65
12759;BME280;20944;47.048;15.390;2023-03-22T07:27:25;97474.84;;;10.82;74.96
12759;BME280;20944;47.048;15.390;2023-03-22T07:29:53;97485.50;;;11.03;74.36
12759;BME280;20944;47.048;15.390;2023-03-22T07:32:21;97486.94;;;11.12;74.35
12759;BME280;20944;47.048;15.390;2023-03-22T07:34:51;97465.03;;;11.15;73.68
12759;BME280;20944;47.048;15.390;2023-03-22T07:37:19;97489.81;;;11.32;73.54
12759;BME280;20944;47.048;15.390;2023-03-22T07:39:47;97486.91;;;11.40;73.16
12759;BME280;20944;47.048;15.390;2023-03-22T07:42:15;97481.25;;;11.52;71.75
12759;BME280;20944;47.048;15.390;2023-03-22T07:44:44;97485.38;;;11.59;72.68
12759;BME280;20944;47.048;15.390;2023-03-22T07:47:13;97469.91;;;11.52;72.10
12759;BME280;20944;47.048;15.390;2023-03-22T07:49:42;97486.31;;;11.58;72.04
12759;BME280;20944;47.048;15.390;2023-03-22T07:52:12;97492.41;;;11.59;72.55
12759;BME280;20944;47.048;15.390;2023-03-22T07:54:40;97490.72;;;11.56;72.98
12759;BME280;20944;47.048;15.390;2023-03-22T07:57:08;97452.81;;;11.40;73.63
12759;BME280;20944;47.048;15.390;2023-03-22T07:59:36;97486.25;;;11.60;73.68
12759;BME280;20944;47.048;15.390;2023-03-22T08:02:05;97485.38;;;11.59;74.00
12759;BME280;20944;47.048;15.390;2023-03-22T08:04:34;97471.63;;;11.53;74.29
12759;BME280;20944;47.048;15.390;2023-03-22T08:07:03;97486.69;;;11.73;72.11
12759;BME280;20944;47.048;15.390;2023-03-22T08:09:33;97487.44;;;11.76;72.49
12759;BME280;20944;47.048;15.390;2023-03-22T08:12:01;97439.44;;;11.48;72.49
12759;BME280;20944;47.048;15.390;2023-03-22T08:14:29;97468.38;;;11.71;72.08
12759;BME280;20944;47.048;15.390;2023-03-22T08:17:02;97488.84;;;11.86;71.56
12759;BME280;20944;47.048;15.390;2023-03-22T08:19:31;97488.00;;;11.86;71.92
12759;BME280;20944;47.048;15.390;2023-03-22T08:22:00;97492.03;;;11.96;71.62
12759;BME280;20944;47.048;15.390;2023-03-22T08:24:29;97492.44;;;12.09;71.05
12759;BME280;20944;47.048;15.390;2023-03-22T08:26:58;97480.84;;;12.14;70.35
12759;BME280;20944;47.048;15.390;2023-03-22T08:29:27;97424.91;;;11.87;69.85
12759;BME280;20944;47.048;15.390;2023-03-22T08:31:55;97486.44;;;12.29;69.34
12759;BME280;20944;47.048;15.390;2023-03-22T08:34:27;97409.41;;;12.05;69.36
12759;BME280;20944;47.048;15.390;2023-03-22T08:36:57;97480.66;;;12.66;67.65
12759;BME280;20944;47.048;15.390;2023-03-22T08:39:25;97475.38;;;12.89;67.08
12759;BME280;20944;47.048;15.390;2023-03-22T08:41:53;97403.03;;;12.57;65.92
12759;BME280;20944;47.048;15.390;2023-03-22T08:44:23;97379.84;;;12.67;65.76
12759;BME280;20944;47.048;15.390;2023-03-22T08:46:52;97473.63;;;13.54;65.42
12759;BME280;20944;47.048;15.390;2023-03-22T08:49:20;97472.66;;;13.77;64.79
12759;BME280;20944;47.048;15.390;2023-03-22T08:51:49;97470.94;;;13.96;63.98
12759;BME280;20944;47.048;15.390;2023-03-22T08:54:17;97460.63;;;14.11;62.74
12759;BME280;20944;47.048;15.390;2023-03-22T08:56:45;97464.31;;;14.27;63.23
12759;BME280;20944;47.048;15.390;2023-03-22T08:59:14;97441.63;;;14.23;61.56
12759;BME280;20944;47.048;15.390;2023-03-22T09:01:43;97453.69;;;14.28;61.09
12759;BME280;20944;47.048;15.390;2023-03-22T09:04:12;97443.69;;;14.16;61.59
12759;BME280;20944;47.048;15.390;2023-03-22T09:06:40;97453.03;;;14.23;60.68
12759;BME280;20944;47.048;15.390;2023-03-22T09:09:11;97348.50;;;13.66;60.58
12759;BME280;20944;47.048;15.390;2023-03-22T09:11:39;97445.34;;;14.38;60.53
12759;BME280;20944;47.048;15.390;2023-03-22T09:14:08;97453.81;;;14.44;61.04
12759;BME280;20944;47.048;15.390;2023-03-22T09:16:37;97453.16;;;14.60;59.78
12759;BME280;20944;47.048;15.390;2023-03-22T09:19:06;97444.16;;;14.64;59.68
12759;BME280;20944;47.048;15.390;2023-03-22T09:21:35;97445.59;;;14.71;60.03
12759;BME280;20944;47.048;15.390;2023-03-22T09:24:03;97400.13;;;14.66;60.13
12759;BME280;20944;47.048;15.390;2023-03-22T09:26:31;97435.25;;;15.21;59.12
12759;BME280;20944;47.048;15.390;2023-03-22T09:28:59;97436.41;;;15.16;58.13
12759;BME280;20944;47.048;15.390;2023-03-22T09:31:28;97454.03;;;15.15;58.07
12759;BME280;20944;47.048;15.390;2023-03-22T09:33:56;97445.47;;;15.10;58.22
12759;BME280;20944;47.048;15.390;2023-03-22T09:36:26;97456.41;;;15.02;57.93
12759;BME280;20944;47.048;15.390;2023-03-22T09:38:54;97442.22;;;14.86;58.53
12759;BME280;20944;47.048;15.390;2023-03-22T09:41:30;97384.63;;;14.39;59.63
12759;BME280;20944;47.048;15.390;2023-03-22T09:44:04;97409.56;;;14.52;61.23
12759;BME280;20944;47.048;15.390;2023-03-22T09:46:36;97413.53;;;14.61;61.19
12759;BME280;20944;47.048;15.390;2023-03-22T09:49:10;97417.09;;;14.60;61.71
12759;BME280;20944;47.048;15.390;2023-03-22T09:51:42;97433.16;;;14.92;61.84
12759;BME280;20944;47.048;15.390;2023-03-22T09:54:14;97428.09;;;15.23;60.90
12759;BME280;20944;47.048;15.390;2023-03-22T09:56:48;97425.47;;;15.41;58.61
12759;BME280;20944;47.048;15.390;2023-03-22T09:59:21;97424.31;;;15.63;59.07
12759;BME280;20944;47.048;15.390;2023-03-22T10:01:55;97428.50;;;15.85;59.19
12759;BME280;20944;47.048;15.390;2023-03-22T10:04:35;97422.16;;;16.05;57.99
12759;BME280;20944;47.048;15.390;2023-03-22T10:07:13;97415.63;;;16.28;58.95
12759;BME280;20944;47.048;15.390;2023-03-22T10:09:50;97324.94;;;15.94;57.95
12759;BME280;20944;47.048;15.390;2023-03-22T10:12:27;97383.41;;;16.53;56.73
12759;BME280;20944;47.048;15.390;2023-03-22T10:15:03;97379.22;;;16.64;56.81
12759;BME280;20944;47.048;15.390;2023-03-22T10:17:35;97401.03;;;16.85;56.59
12759;BME280;20944;47.048;15.390;2023-03-22T10:20:06;97403.38;;;16.90;54.64
12759;BME280;20944;47.048;15.390;2023-03-22T10:22:42;97395.09;;;16.96;54.95
12759;BME280;20944;47.048;15.390;2023-03-22T10:25:18;97392.09;;;17.02;54.78
12759;BME280;20944;47.048;15.390;2023-03-22T10:27:49;97389.09;;;17.08;53.42
12759;BME280;20944;47.048;15.390;2023-03-22T10:30:20;97385.00;;;17.18;53.03
12759;BME280;20944;47.048;15.390;2023-03-22T10:32:54;97390.91;;;17.38;51.87
12759;BME280;20944;47.048;15.390;2023-03-22T10:35:24;97386.00;;;17.46;50.99
12759;BME280;20944;47.048;15.390;2023-03-22T10:37:56;97390.69;;;17.57;51.05
12759;BME280;20944;47.048;15.390;2023-03-22T10:40:26;97377.16;;;17.61;51.39
12759;BME280;20944;47.048;15.390;2023-03-22T10:42:58;97371.88;;;17.61;50.00
12759;BME280;20944;47.048;15.390;2023-03-22T10:45:28;97386.72;;;17.64;51.41
12759;BME280;20944;47.048;15.390;2023-03-22T10:48:01;97388.50;;;17.63;50.29
12759;BME280;20944;47.048;15.390;2023-03-22T10:50:33;97382.69;;;17.72;50.30
12759;BME280;20944;47.048;15.390;2023-03-22T10:53:06;97381.84;;;17.86;51.55
12759;BME280;20944;47.048;15.390;2023-03-22T10:55:38;97373.31;;;17.95;49.72
12759;BME280;20944;47.048;15.390;2023-03-22T10:58:11;97356.69;;;17.93;49.24
12759;BME280;20944;47.048;15.390;2023-03-22T11:00:43;97369.53;;;18.14;47.73
12759;BME280;20944;47.048;15.390;2023-03-22T11:03:26;97379.66;;;18.21;49.95
12759;BME280;20944;47.048;15.390;2023-03-22T11:06:05;97230.38;;;17.49;48.05
12759;BME280;20944;47.048;15.390;2023-03-22T11:08:41;97351.25;;;18.23;48.93
12759;BME280;20944;47.048;15.390;2023-03-22T11:11:16;97263.78;;;17.66;45.60
12759;BME280;20944;47.048;15.390;2023-03-22T11:13:49;97379.38;;;18.26;46.46
12759;BME280;20944;47.048;15.390;2023-03-22T11:16:18;97355.50;;;18.26;49.84
12759;BME280;20944;47.048;15.390;2023-03-22T11:18:47;97364.69;;;18.34;46.55
12759;BME280;20944;47.048;15.390;2023-03-22T11:21:16;97361.84;;;18.38;46.85
12759;BME280;20944;47.048;15.390;2023-03-22T11:23:53;97359.38;;;18.49;45.76
12759;BME280;20944;47.048;15.390;2023-03-22T11:26:29;97358.19;;;18.53;46.68
12759;BME280;20944;47.048;15.390;2023-03-22T11:29:09;97352.09;;;18.65;47.51
12759;BME280;20944;47.048;15.390;2023-03-22T11:31:49;97332.00;;;18.75;46.41
12759;BME280;20944;47.048;15.390;2023-03-22T11:34:23;97344.63;;;18.99;45.14
12759;BME280;20944;47.048;15.390;2023-03-22T11:36:52;97323.94;;;19.17;45.85
12759;BME280;20944;47.048;15.390;2023-03-22T11:39:27;97327.38;;;19.31;43.46
12759;BME280;20944;47.048;15.390;2023-03-22T11:41:57;97313.25;;;19.31;44.25
12759;BME280;20944;47.048;15.390;2023-03-22T11:44:31;97317.78;;;19.16;43.32
12759;BME280;20944;47.048;15.390;2023-03-22T11:47:02;97312.25;;;19.06;43.77
12759;BME280;20944;47.048;15.390;2023-03-22T11:49:38;97229.69;;;18.57;44.83
12759;BME280;20944;47.048;15.390;2023-03-22T11:52:09;97302.69;;;19.17;45.81
12759;BME280;20944;47.048;15.390;2023-03-22T11:54:41;97301.97;;;19.27;45.91
12759;BME280;20944;47.048;15.390;2023-03-22T11:57:14;97303.59;;;19.30;43.48
12759;BME280;20944;47.048;15.390;2023-03-22T11:59:46;97302.81;;;19.28;43.00
12759;BME280;20944;47.048;15.390;2023-03-22T12:02:19;97303.47;;;19.31;43.86
12759;BME280;20944;47.048;15.390;2023-03-22T12:04:53;97293.38;;;19.36;42.72
12759;BME280;20944;47.048;15.390;2023-03-22T12:07:27;97289.00;;;19.23;42.87
12759;BME280;20944;47.048;15.390;2023-03-22T12:10:02;97204.47;;;18.77;43.70
12759;BME280;20944;47.048;15.390;2023-03-22T12:12:36;97242.09;;;18.96;43.20
12759;BME280;20944;47.048;15.390;2023-03-22T12:15:13;97270.94;;;19.40;41.90
12759;BME280;20944;47.048;15.390;2023-03-22T12:17:47;97288.41;;;19.70;41.68
12759;BME280;20944;47.048;15.390;2023-03-22T12:20:31;97284.47;;;19.63;41.37
12759;BME280;20944;47.048;15.390;2023-03-22T12:23:11;97278.72;;;19.82;42.83
12759;BME280;20944;47.048;15.390;2023-03-22T12:25:45;97279.53;;;20.08;40.92
12759;BME280;20944;47.048;15.390;2023-03-22T12:28:18;97266.47;;;20.29;41.46
12759;BME280;20944;47.048;15.390;2023-03-22T12:30:49;97261.94;;;20.55;40.76
12759;BME280;20944;47.048;15.390;2023-03-22T12:33:22;97169.88;;;20.15;39.67
12759;BME280;20944;47.048;15.390;2023-03-22T12:35:55;97259.06;;;20.93;40.71
12759;BME280;20944;47.048;15.390;2023-03-22T12:38:28;97248.78;;;20.88;38.44
12759;BME280;20944;47.048;15.390;2023-03-22T12:41:02;97248.56;;;21.02;37.86
12759;BME280;20944;47.048;15.390;2023-03-22T12:43:38;97256.00;;;20.86;39.33
12759;BME280;20944;47.048;15.390;2023-03-22T12:46:17;97241.53;;;21.01;39.17
12759;BME280;20944;47.048;15.390;2023-03-22T12:48:48;97247.63;;;21.15;36.75
12759;BME280;20944;47.048;15.390;2023-03-22T12:51:18;97249.81;;;21.21;37.17
12759;BME280;20944;47.048;15.390;2023-03-22T12:53:49;97210.91;;;21.07;37.13
12759;BME280;20944;47.048;15.390;2023-03-22T12:56:22;97234.25;;;21.39;37.32
12759;BME280;20944;47.048;15.390;2023-03-22T12:58:53;97225.91;;;21.54;36.02
12759;BME280;20944;47.048;15.390;2023-03-22T13:01:28;97212.09;;;21.61;35.37
12759;BME280;20944;47.048;15.390;2023-03-22T13:03:59;97225.19;;;21.64;35.20
12759;BME280;20944;47.048;15.390;2023-03-22T13:06:55;97218.03;;;21.64;34.48
12759;BME280;20944;47.048;15.390;2023-03-22T13:09:38;97194.53;;;21.58;35.04
12759;BME280;20944;47.048;15.390;2023-03-22T13:12:30;97189.16;;;21.80;35.86
12759;BME280;20944;47.048;15.390;2023-03-22T13:15:02;97205.50;;;21.98;35.24
12759;BME280;20944;47.048;15.390;2023-03-22T13:17:39;97207.97;;;22.13;34.27
12759;BME280;20944;47.048;15.390;2023-03-22T13:20:24;97060.50;;;21.34;33.48
12759;BME280;20944;47.048;15.390;2023-03-22T13:23:08;97202.50;;;22.46;35.28
12759;BME280;20944;47.048;15.390;2023-03-22T13:25:38;97182.78;;;22.58;33.51